createdAt,value
2023-03-24T23:12:05.286Z,9.65
2023-03-24T23:13:05.238Z,9.67
2023-03-24T23:14:05.157Z,9.67
2023-03-24T23:15:04.915Z,9.65
2023-03-24T23:16:05.448Z,9.65
2023-03-24T23:16:10.759Z,9.66
2023-03-24T23:17:02.050Z,9.66
2023-03-24T23:18:02.621Z,9.66
2023-03-24T23:19:02.194Z,9.63
2023-03-24T23:20:02.078Z,9.63
2023-03-24T23:21:01.926Z,9.62
2023-03-24T23:22:02.949Z,9.62
2023-03-24T23:23:04.366Z,9.63
2023-03-24T23:24:02.631Z,9.63
2023-03-24T23:25:02.928Z,9.64
2023-03-24T23:26:02.811Z,9.64
2023-03-24T23:27:03.430Z,9.63
2023-03-24T23:28:03.024Z,9.63
2023-03-24T23:29:02.868Z,9.63
2023-03-24T23:30:03.319Z,9.63
2023-03-24T23:31:03.330Z,9.63
2023-03-24T23:32:02.585Z,9.62
2023-03-24T23:33:03.119Z,9.62
2023-03-24T23:34:02.832Z,9.62
2023-03-24T23:35:02.683Z,9.62
2023-03-24T23:36:02.633Z,9.62
2023-03-24T23:37:03.268Z,9.63
2023-03-24T23:38:02.797Z,9.64
2023-03-24T23:39:02.773Z,9.63
2023-03-24T23:40:02.581Z,9.62
2023-03-24T23:41:03.234Z,9.61
2023-03-24T23:42:02.010Z,9.61
2023-03-24T23:43:02.657Z,9.60
2023-03-24T23:44:02.408Z,9.60
2023-03-24T23:45:02.408Z,9.60
2023-03-24T23:46:02.364Z,9.61
2023-03-24T23:47:02.895Z,9.62
2023-03-24T23:48:03.019Z,9.63
2023-03-24T23:49:02.619Z,9.60
2023-03-24T23:50:02.467Z,9.60
2023-03-24T23:51:02.376Z,9.59
2023-03-24T23:52:02.165Z,9.59
2023-03-24T23:53:02.182Z,9.59
2023-03-24T23:54:02.025Z,9.58
2023-03-24T23:55:02.599Z,9.57
2023-03-24T23:56:02.269Z,9.57
2023-03-24T23:57:02.429Z,9.56
2023-03-24T23:58:02.220Z,9.54
2023-03-24T23:59:02.171Z,9.52
